createdAt,value
2019-05-29T03:47:58.021Z,87.20
2019-05-29T03:50:36.046Z,84.90
2019-05-29T03:53:04.161Z,85.30
2019-05-29T03:55:33.833Z,86.80
2019-05-29T03:58:04.390Z,84.90
2019-05-29T04:00:41.316Z,85.50
2019-05-29T04:03:16.002Z,85.50
2019-05-29T04:05:45.557Z,86.00
2019-05-29T04:08:13.712Z,87.10
2019-05-29T04:11:12.331Z,85.80
2019-05-29T04:13:40.365Z,85.40
2019-05-29T04:16:09.942Z,85.80
2019-05-29T04:18:40.203Z,86.60
2019-05-29T04:21:10.623Z,85.80
2019-05-29T04:23:39.919Z,86.50
2019-05-29T04:26:09.723Z,86.90
2019-05-29T04:28:38.986Z,86.10
2019-05-29T04:31:10.308Z,86.00
2019-05-29T04:33:38.916Z,86.00
2019-05-29T04:36:07.167Z,83.90
2019-05-29T04:38:36.142Z,84.30
2019-05-29T04:41:05.075Z,83.80
2019-05-29T04:43:35.450Z,80.80
2019-05-29T04:46:03.839Z,79.70
2019-05-29T04:48:36.148Z,80.40
2019-05-29T04:51:55.848Z,79.40
2019-05-29T04:54:29.307Z,80.50
2019-05-29T04:57:16.945Z,83.20
2019-05-29T04:59:44.952Z,83.80
2019-05-29T05:02:13.012Z,85.20
2019-05-29T05:04:41.056Z,84.80
2019-05-29T05:07:09.040Z,85.30
2019-05-29T05:09:37.536Z,85.90
2019-05-29T05:12:05.590Z,85.40
2019-05-29T05:14:33.693Z,86.30
2019-05-29T05:17:01.814Z,84.20
2019-05-29T05:19:29.808Z,84.30
2019-05-29T05:21:57.849Z,84.60
2019-05-29T05:24:25.834Z,83.90
2019-05-29T05:26:53.816Z,82.20
2019-05-29T05:29:21.850Z,83.40
2019-05-29T05:31:49.857Z,80.80
2019-05-29T05:34:17.951Z,81.20
2019-05-29T05:36:46.032Z,82.90
2019-05-29T05:39:14.073Z,82.60
2019-05-29T05:41:42.129Z,81.90
2019-05-29T05:44:11.128Z,81.90
2019-05-29T05:46:39.251Z,83.80
2019-05-29T05:49:07.421Z,84.50
2019-05-29T05:51:38.245Z,84.00
2019-05-29T05:54:05.158Z,82.90
2019-05-29T05:56:33.695Z,82.60
2019-05-29T05:59:01.717Z,83.40
2019-05-29T06:01:29.698Z,84.00
2019-05-29T06:03:57.814Z,83.30
2019-05-29T06:06:28.172Z,82.30
2019-05-29T06:08:55.601Z,81.90
2019-05-29T06:11:23.670Z,82.30
2019-05-29T06:13:51.666Z,82.90
2019-05-29T06:16:19.664Z,83.00
2019-05-29T06:18:47.659Z,82.20
2019-05-29T06:21:15.805Z,82.30
2019-05-29T06:23:43.904Z,81.20
2019-05-29T06:26:11.962Z,81.90
2019-05-29T06:28:41.183Z,83.40
2019-05-29T06:31:09.329Z,84.30
2019-05-29T06:33:37.454Z,84.40
2019-05-29T06:36:05.448Z,83.70
2019-05-29T06:38:33.638Z,84.30
2019-05-29T06:41:01.720Z,84.30
2019-05-29T06:43:29.712Z,84.00
2019-05-29T06:45:57.769Z,83.40
2019-05-29T06:48:41.278Z,82.80
2019-05-29T06:50:57.726Z,81.80
2019-05-29T06:53:26.507Z,82.80
2019-05-29T06:55:56.317Z,82.90
2019-05-29T06:58:24.376Z,83.60
2019-05-29T07:00:58.654Z,84.30
2019-05-29T07:03:27.074Z,82.80
2019-05-29T07:05:55.089Z,81.20
2019-05-29T07:08:37.464Z,81.00
2019-05-29T07:10:52.913Z,81.20
2019-05-29T07:13:20.971Z,80.80
2019-05-29T07:15:49.038Z,81.20
2019-05-29T07:18:17.041Z,79.10
2019-05-29T07:20:45.017Z,81.00
2019-05-29T07:23:12.977Z,78.90
2019-05-29T07:25:40.991Z,78.00
2019-05-29T07:28:08.975Z,76.00
2019-05-29T07:30:37.347Z,77.40
2019-05-29T07:33:05.442Z,77.30
2019-05-29T07:35:33.449Z,74.90
2019-05-29T07:38:01.428Z,73.60
2019-05-29T07:40:29.461Z,75.50
2019-05-29T07:42:57.515Z,74.00
2019-05-29T07:45:25.524Z,73.30
2019-05-29T07:47:53.571Z,73.40
2019-05-29T07:50:21.562Z,72.60
2019-05-29T07:52:49.541Z,73.10
2019-05-29T07:55:17.616Z,73.30
2019-05-29T07:57:46.887Z,73.50
2019-05-29T08:00:15.349Z,74.60
2019-05-29T08:02:43.456Z,75.70
2019-05-29T08:05:11.652Z,76.90
2019-05-29T08:07:39.651Z,76.60
2019-05-29T08:10:08.120Z,75.70
2019-05-29T08:12:36.302Z,75.80
2019-05-29T08:15:05.343Z,75.80
2019-05-29T08:17:33.325Z,76.10
2019-05-29T08:20:07.169Z,77.00
2019-05-29T08:22:34.634Z,75.80
2019-05-29T08:25:00.790Z,76.30
2019-05-29T08:27:28.777Z,76.20
2019-05-29T08:29:56.873Z,76.60
2019-05-29T08:32:24.849Z,78.50
2019-05-29T08:34:52.858Z,76.90
2019-05-29T08:37:20.906Z,73.90
2019-05-29T08:39:49.567Z,73.30
2019-05-29T08:42:23.078Z,74.80
2019-05-29T08:44:47.532Z,75.10
2019-05-29T08:47:15.600Z,74.90
2019-05-29T08:49:44.030Z,72.50
2019-05-29T08:52:13.332Z,73.30
2019-05-29T08:54:42.058Z,70.70
2019-05-29T08:57:10.129Z,65.90
2019-05-29T08:59:38.164Z,66.80
2019-05-29T09:02:06.167Z,65.80
2019-05-29T09:04:34.227Z,67.90
2019-05-29T09:07:02.213Z,69.10
2019-05-29T09:09:30.206Z,67.00
2019-05-29T09:11:58.222Z,66.90
2019-05-29T09:14:26.238Z,68.70
2019-05-29T09:16:54.359Z,67.40
2019-05-29T09:19:22.872Z,69.00
2019-05-29T09:21:51.044Z,66.40
2019-05-29T09:24:19.371Z,66.80
2019-05-29T09:26:47.506Z,67.30
2019-05-29T09:29:18.696Z,66.00
2019-05-29T09:31:45.223Z,66.50
2019-05-29T09:34:13.900Z,66.60
2019-05-29T09:36:42.999Z,64.50
2019-05-29T09:39:11.051Z,63.20
2019-05-29T09:41:39.056Z,63.70
2019-05-29T09:44:07.102Z,63.80
2019-05-29T09:46:35.102Z,64.90
2019-05-29T09:49:03.165Z,61.90
2019-05-29T09:51:31.208Z,62.50
2019-05-29T09:53:59.911Z,63.40
2019-05-29T09:56:28.949Z,62.20
2019-05-29T09:58:58.488Z,65.00
2019-05-29T10:01:26.731Z,61.60
2019-05-29T10:03:56.389Z,63.30
2019-05-29T10:06:24.410Z,63.20
2019-05-29T10:08:54.873Z,64.60
2019-05-29T10:11:23.594Z,62.60
2019-05-29T10:13:51.635Z,63.60
2019-05-29T10:16:19.700Z,64.30
2019-05-29T10:18:47.677Z,65.10
2019-05-29T10:21:15.684Z,63.90
2019-05-29T10:23:43.664Z,62.00
2019-05-29T10:26:12.701Z,63.90
2019-05-29T10:28:55.594Z,62.30
2019-05-29T10:31:10.544Z,57.40
2019-05-29T10:33:38.601Z,55.60
2019-05-29T10:36:06.670Z,55.30
2019-05-29T10:38:34.668Z,55.60
2019-05-29T10:41:06.612Z,57.20
2019-05-29T10:43:34.620Z,56.90
2019-05-29T10:46:02.139Z,62.00
2019-05-29T10:48:30.176Z,66.30
2019-05-29T10:50:58.214Z,66.30
2019-05-29T10:53:26.229Z,65.60
2019-05-29T10:55:54.953Z,66.40
2019-05-29T10:58:23.151Z,66.50
2019-05-29T11:00:51.327Z,64.20
2019-05-29T11:03:19.471Z,57.80
2019-05-29T11:05:47.549Z,59.10
2019-05-29T11:08:15.738Z,58.80
2019-05-29T11:10:43.736Z,60.80
2019-05-29T11:13:11.705Z,59.60
2019-05-29T11:15:39.689Z,60.50
2019-05-29T11:18:07.669Z,59.20
2019-05-29T11:20:35.670Z,58.70
2019-05-29T11:23:03.750Z,59.30
2019-05-29T11:25:31.732Z,61.00
2019-05-29T11:27:59.724Z,61.90
2019-05-29T11:30:27.718Z,61.00
2019-05-29T11:32:57.275Z,59.80
2019-05-29T11:35:25.472Z,57.90
2019-05-29T11:37:54.623Z,59.50
2019-05-29T11:40:22.915Z,58.20
2019-05-29T11:42:50.967Z,57.00
2019-05-29T11:45:19.418Z,57.80
2019-05-29T11:47:47.429Z,52.20
2019-05-29T11:50:19.867Z,53.20
2019-05-29T11:52:46.290Z,51.90
2019-05-29T11:55:14.518Z,52.30
2019-05-29T11:57:42.578Z,55.70
2019-05-29T12:00:19.486Z,52.60
2019-05-29T12:02:41.539Z,49.10
2019-05-29T12:05:09.922Z,49.90
2019-05-29T12:07:38.001Z,49.50
2019-05-29T12:10:07.177Z,49.20
2019-05-29T12:12:35.879Z,48.30
2019-05-29T12:15:13.588Z,50.50
2019-05-29T12:17:38.104Z,50.10
2019-05-29T12:20:26.544Z,52.60
2019-05-29T12:22:36.604Z,52.70
2019-05-29T12:25:05.308Z,52.40
2019-05-29T12:27:33.303Z,51.10
2019-05-29T12:30:01.417Z,52.90
2019-05-29T12:32:29.411Z,53.10
2019-05-29T12:34:58.570Z,53.40
2019-05-29T12:37:27.095Z,54.20
2019-05-29T12:39:55.434Z,51.60
2019-05-29T12:42:23.510Z,51.20
2019-05-29T12:44:51.526Z,50.30
2019-05-29T12:47:19.566Z,51.20
2019-05-29T12:49:47.560Z,51.90
2019-05-29T12:52:15.547Z,52.70
2019-05-29T12:54:43.528Z,52.10
2019-05-29T12:57:11.529Z,52.70
2019-05-29T12:59:41.241Z,52.50
2019-05-29T13:02:09.665Z,52.30
2019-05-29T13:05:05.997Z,51.90
2019-05-29T13:07:07.482Z,53.10
2019-05-29T13:09:35.557Z,51.80
2019-05-29T13:12:04.787Z,52.40
2019-05-29T13:14:32.870Z,51.60
2019-05-29T13:17:00.917Z,52.20
2019-05-29T13:19:28.950Z,53.90
2019-05-29T13:21:57.346Z,53.70
2019-05-29T13:24:25.432Z,54.60
2019-05-29T13:26:53.484Z,52.80
2019-05-29T13:29:21.482Z,54.90
2019-05-29T13:31:49.492Z,52.70
2019-05-29T13:34:17.563Z,51.20
2019-05-29T13:36:45.634Z,52.20
2019-05-29T13:39:13.697Z,52.30
2019-05-29T13:41:41.819Z,49.80
2019-05-29T13:44:09.811Z,49.00
2019-05-29T13:46:37.798Z,50.20
2019-05-29T13:49:07.020Z,50.40
2019-05-29T13:51:35.255Z,51.00
2019-05-29T13:54:11.015Z,51.00
2019-05-29T13:56:33.012Z,51.60
2019-05-29T13:59:02.043Z,52.10
2019-05-29T14:01:30.189Z,50.10
2019-05-29T14:03:58.210Z,50.40
2019-05-29T14:06:26.239Z,49.90
2019-05-29T14:08:54.318Z,51.00
2019-05-29T14:11:22.336Z,50.60
2019-05-29T14:13:50.329Z,51.60
2019-05-29T14:16:18.393Z,51.90
2019-05-29T14:18:46.629Z,51.40
2019-05-29T14:21:14.657Z,52.60
2019-05-29T14:23:42.641Z,53.60
2019-05-29T14:26:10.750Z,53.10
2019-05-29T14:28:38.836Z,54.80
2019-05-29T14:31:08.389Z,53.30
2019-05-29T14:33:36.620Z,53.70
2019-05-29T14:36:06.005Z,53.00
2019-05-29T14:38:34.468Z,53.10
2019-05-29T14:41:03.589Z,52.70
2019-05-29T14:43:31.920Z,54.00
2019-05-29T14:46:00.205Z,53.40
2019-05-29T14:48:28.190Z,52.50
2019-05-29T14:50:56.187Z,51.30
2019-05-29T14:53:24.270Z,50.10
2019-05-29T14:55:52.320Z,48.70
2019-05-29T14:58:20.367Z,50.40
2019-05-29T15:00:48.421Z,49.50
2019-05-29T15:03:16.485Z,50.60
2019-05-29T15:05:44.753Z,52.10
2019-05-29T15:08:13.989Z,50.80
2019-05-29T15:10:43.864Z,52.10
2019-05-29T15:13:13.392Z,53.40
2019-05-29T15:15:41.642Z,53.90
2019-05-29T15:18:14.632Z,52.00
2019-05-29T15:20:39.327Z,51.10
2019-05-29T15:23:07.611Z,50.90
2019-05-29T15:25:35.747Z,50.80
2019-05-29T15:28:03.838Z,54.90
2019-05-29T15:30:31.827Z,57.50
2019-05-29T15:32:59.892Z,57.00
2019-05-29T15:35:28.104Z,57.30
2019-05-29T15:37:56.128Z,57.70
2019-05-29T15:40:24.127Z,58.40
2019-05-29T15:42:52.106Z,58.50
2019-05-29T15:45:20.361Z,59.40
2019-05-29T15:47:48.569Z,58.90
2019-05-29T15:50:17.974Z,57.50
2019-05-29T15:52:46.231Z,56.90
2019-05-29T15:55:31.855Z,57.20
2019-05-29T15:57:44.098Z,57.80
2019-05-29T16:00:13.619Z,58.80
2019-05-29T16:02:41.922Z,58.40
2019-05-29T16:05:11.178Z,57.70
2019-05-29T16:07:39.456Z,56.80
2019-05-29T16:10:08.219Z,57.00
2019-05-29T16:12:36.338Z,56.60
2019-05-29T16:15:05.761Z,56.00
2019-05-29T16:17:33.773Z,57.80
2019-05-29T16:20:02.102Z,57.60
2019-05-29T16:22:30.170Z,56.90
2019-05-29T16:25:01.122Z,57.30
2019-05-29T16:27:31.057Z,55.80
2019-05-29T16:29:59.020Z,55.50
2019-05-29T16:32:27.049Z,55.60
2019-05-29T16:34:55.043Z,55.70
2019-05-29T16:37:23.155Z,56.10
2019-05-29T16:39:51.145Z,56.00
2019-05-29T16:42:20.492Z,56.50
2019-05-29T16:44:48.675Z,57.00
2019-05-29T16:47:16.753Z,57.10
2019-05-29T16:49:44.882Z,57.30
2019-05-29T16:52:13.011Z,57.80
2019-05-29T16:54:41.432Z,58.30
2019-05-29T16:57:09.836Z,58.60
2019-05-29T16:59:37.865Z,58.30
2019-05-29T17:02:05.866Z,58.70
2019-05-29T17:04:33.961Z,58.60
2019-05-29T17:07:02.018Z,58.20
2019-05-29T17:09:30.042Z,58.30
2019-05-29T17:11:58.049Z,58.70
2019-05-29T17:14:26.098Z,58.60
2019-05-29T17:16:54.321Z,58.30
2019-05-29T17:19:23.055Z,58.80
2019-05-29T17:21:51.345Z,58.40
2019-05-29T17:24:19.320Z,59.00
2019-05-29T17:26:47.433Z,59.20
2019-05-29T17:29:16.769Z,59.30
2019-05-29T17:31:44.965Z,59.70
2019-05-29T17:34:13.017Z,60.50
2019-05-29T17:36:41.029Z,61.20
2019-05-29T17:39:09.071Z,60.80
2019-05-29T17:41:37.054Z,59.60
2019-05-29T17:44:05.163Z,59.50
2019-05-29T17:46:33.301Z,59.20
2019-05-29T17:49:01.363Z,59.30
2019-05-29T17:51:29.438Z,60.30
2019-05-29T17:53:57.511Z,61.50
2019-05-29T17:56:36.005Z,63.40
2019-05-29T17:58:55.207Z,64.90
2019-05-29T18:01:24.264Z,66.10
2019-05-29T18:03:52.486Z,66.00
2019-05-29T18:06:20.542Z,66.20
2019-05-29T18:08:48.535Z,66.60
2019-05-29T18:11:16.912Z,68.70
2019-05-29T18:13:44.993Z,69.00
2019-05-29T18:16:12.978Z,68.70
2019-05-29T18:18:41.017Z,70.10
2019-05-29T18:21:09.070Z,71.50
2019-05-29T18:23:37.059Z,72.40
2019-05-29T18:26:05.045Z,72.60
2019-05-29T18:28:33.215Z,72.80
2019-05-29T18:31:01.265Z,72.90
2019-05-29T18:33:29.364Z,72.70
2019-05-29T18:35:57.400Z,73.90
2019-05-29T18:38:26.491Z,75.30
2019-05-29T18:40:54.729Z,76.10
2019-05-29T18:43:22.759Z,74.70
2019-05-29T18:45:50.745Z,74.70
2019-05-29T18:48:18.745Z,75.50
2019-05-29T18:50:46.733Z,76.70
2019-05-29T18:53:14.742Z,76.60
2019-05-29T18:55:42.732Z,76.60
2019-05-29T18:58:10.761Z,77.30
2019-05-29T19:00:38.781Z,77.30
2019-05-29T19:03:06.886Z,77.30
2019-05-29T19:05:34.881Z,77.90
2019-05-29T19:08:03.785Z,77.70
2019-05-29T19:10:31.995Z,78.40
2019-05-29T19:13:00.050Z,78.40
2019-05-29T19:15:28.179Z,77.40
2019-05-29T19:17:56.265Z,77.80
2019-05-29T19:20:24.358Z,76.10
2019-05-29T19:22:52.553Z,76.30
2019-05-29T19:25:20.809Z,76.80
2019-05-29T19:27:48.882Z,78.50
2019-05-29T19:30:17.499Z,78.70
2019-05-29T19:32:45.534Z,79.20
2019-05-29T19:35:13.703Z,79.60
2019-05-29T19:37:41.737Z,79.30
2019-05-29T19:40:10.234Z,80.20
2019-05-29T19:42:38.309Z,78.90
2019-05-29T19:45:06.914Z,77.60
2019-05-29T19:47:35.025Z,78.50
2019-05-29T19:50:04.223Z,79.60
2019-05-29T19:52:33.281Z,79.70
2019-05-29T19:55:01.349Z,79.80
2019-05-29T19:57:29.880Z,79.40
2019-05-29T19:59:59.259Z,77.50
2019-05-29T20:02:28.385Z,78.10
2019-05-29T20:04:56.501Z,77.30
2019-05-29T20:07:24.516Z,77.90
2019-05-29T20:09:52.625Z,79.70
2019-05-29T20:12:20.755Z,80.30
2019-05-29T20:14:48.939Z,80.90
2019-05-29T20:17:17.325Z,81.80
2019-05-29T20:19:45.351Z,82.60
2019-05-29T20:22:13.428Z,82.50
2019-05-29T20:24:41.653Z,82.50
2019-05-29T20:27:09.638Z,82.70
2019-05-29T20:29:38.529Z,83.10
2019-05-29T20:32:06.739Z,83.10
2019-05-29T20:34:34.827Z,83.50
2019-05-29T20:37:02.991Z,84.20
2019-05-29T20:39:32.825Z,83.60
2019-05-29T20:42:00.915Z,84.00
2019-05-29T20:44:28.922Z,83.60
2019-05-29T20:46:56.986Z,82.30
2019-05-29T20:49:24.974Z,83.80
2019-05-29T20:51:53.012Z,83.00
2019-05-29T20:54:21.013Z,82.40
2019-05-29T20:56:49.076Z,82.20
2019-05-29T20:59:17.076Z,83.30
2019-05-29T21:01:47.355Z,81.90
2019-05-29T21:04:14.824Z,82.90
2019-05-29T21:06:42.877Z,82.10
2019-05-29T21:09:10.898Z,83.50
2019-05-29T21:11:39.522Z,83.50
2019-05-29T21:14:07.689Z,83.60
2019-05-29T21:16:35.693Z,82.10
2019-05-29T21:19:03.755Z,82.70
2019-05-29T21:21:31.833Z,80.90
2019-05-29T21:23:59.893Z,81.50
2019-05-29T21:26:27.961Z,80.30
2019-05-29T21:28:56.033Z,81.70
2019-05-29T21:31:24.049Z,82.60
2019-05-29T21:33:52.119Z,82.00
2019-05-29T21:36:20.182Z,81.60
2019-05-29T21:38:48.321Z,81.10
2019-05-29T21:41:16.314Z,81.90
2019-05-29T21:43:44.789Z,83.40
2019-05-29T21:46:12.927Z,82.60
2019-05-29T21:48:41.262Z,81.10
2019-05-29T21:51:09.405Z,81.80
2019-05-29T21:53:37.475Z,82.90
2019-05-29T21:56:05.527Z,81.50
2019-05-29T21:58:33.505Z,82.40
2019-05-29T22:01:01.582Z,82.60
2019-05-29T22:03:29.678Z,83.20
2019-05-29T22:05:57.769Z,83.50
2019-05-29T22:08:25.796Z,82.60
2019-05-29T22:10:53.923Z,82.60
2019-05-29T22:13:21.950Z,83.30
2019-05-29T22:15:50.616Z,83.50
2019-05-29T22:18:18.817Z,84.10
2019-05-29T22:20:46.794Z,84.10
2019-05-29T22:23:14.853Z,83.90
2019-05-29T22:25:42.846Z,84.90
2019-05-29T22:28:10.925Z,82.40
2019-05-29T22:30:38.952Z,83.90
2019-05-29T22:33:06.979Z,84.10
2019-05-29T22:35:35.021Z,83.50
2019-05-29T22:38:03.088Z,83.80
2019-05-29T22:40:31.164Z,83.80
2019-05-29T22:42:59.874Z,83.10
2019-05-29T22:45:28.019Z,83.20
2019-05-29T22:47:56.091Z,82.40
2019-05-29T22:50:24.165Z,82.40
2019-05-29T22:52:52.247Z,82.70
2019-05-29T22:55:20.300Z,83.10
2019-05-29T22:57:48.317Z,85.00
